N124MC KJAC-KWYS
Flight info
| Callsign | N124MC |
|---|---|
| Flight time | 0h 32m |
| Altitude | 10500 |
| Route | VFR |
| Aircraft | M20P/L-VGD/C |
Departure
| Time | 2026-05-05 21:33 |
|---|---|
| Airport | Jackson Hole Airport (KJAC) |
Arrival
| Time | 2026-05-05 22:05 |
|---|---|
| Airport | Yellowstone Airport (KWYS) |
| Time | Latitude | Longitude | Altitude | Speed | Heading |
|---|---|---|---|---|---|
| 2026-05-05 21:26 | 43.59933 | -110.73931 | 6409 ft | 0 kts | 108° |
| 2026-05-05 21:29 | 43.59932 | -110.73927 | 6409 ft | 0 kts | 100° |
| 2026-05-05 21:29 | 43.59913 | -110.73922 | 6409 ft | 11 kts | 197° |
| 2026-05-05 21:30 | 43.59893 | -110.74031 | 6410 ft | 20 kts | 288° |
| 2026-05-05 21:30 | 43.59948 | -110.74158 | 6411 ft | 0 kts | 18° |
| 2026-05-05 21:31 | 43.60058 | -110.74106 | 6411 ft | 35 kts | 20° |
| 2026-05-05 21:32 | 43.60395 | -110.73940 | 6419 ft | 64 kts | 18° |
| 2026-05-05 21:32 | 43.60842 | -110.73735 | 6552 ft | 71 kts | 15° |
| 2026-05-05 21:32 | 43.61362 | -110.73760 | 6698 ft | 84 kts | 336° |
| 2026-05-05 21:32 | 43.61884 | -110.74109 | 6957 ft | 84 kts | 341° |
| 2026-05-05 21:33 | 43.62434 | -110.74384 | 7231 ft | 86 kts | 342° |
| 2026-05-05 21:33 | 43.63020 | -110.74685 | 7494 ft | 92 kts | 342° |
| 2026-05-05 21:33 | 43.63621 | -110.74989 | 7741 ft | 93 kts | 340° |
| 2026-05-05 21:33 | 43.64227 | -110.75289 | 7999 ft | 92 kts | 343° |
| 2026-05-05 21:34 | 43.64860 | -110.75637 | 8236 ft | 101 kts | 343° |
| 2026-05-05 21:34 | 43.65514 | -110.75882 | 8489 ft | 96 kts | 356° |
| 2026-05-05 21:34 | 43.66161 | -110.75949 | 8749 ft | 91 kts | 358° |
| 2026-05-05 21:34 | 43.66786 | -110.75897 | 9009 ft | 89 kts | 0° |
| 2026-05-05 21:35 | 43.67390 | -110.75814 | 9268 ft | 86 kts | 1° |
| 2026-05-05 21:35 | 43.67962 | -110.75639 | 9518 ft | 82 kts | 10° |
| 2026-05-05 21:35 | 43.68515 | -110.75347 | 9666 ft | 89 kts | 12° |
| 2026-05-05 21:35 | 43.69113 | -110.75052 | 9803 ft | 94 kts | 10° |
| 2026-05-05 21:36 | 43.69736 | -110.74734 | 9931 ft | 96 kts | 11° |
| 2026-05-05 21:36 | 43.70391 | -110.74417 | 10063 ft | 102 kts | 11° |
| 2026-05-05 21:36 | 43.71076 | -110.74088 | 10189 ft | 105 kts | 10° |
| 2026-05-05 21:36 | 43.71781 | -110.73744 | 10317 ft | 110 kts | 9° |
| 2026-05-05 21:37 | 43.72519 | -110.73378 | 10474 ft | 116 kts | 11° |
| 2026-05-05 21:37 | 43.73323 | -110.73013 | 10508 ft | 130 kts | 11° |
| 2026-05-05 21:37 | 43.74232 | -110.72621 | 10509 ft | 143 kts | 11° |
| 2026-05-05 21:37 | 43.75214 | -110.72209 | 10508 ft | 151 kts | 11° |
| 2026-05-05 21:38 | 43.76234 | -110.71792 | 10505 ft | 153 kts | 11° |
| 2026-05-05 21:38 | 43.77255 | -110.71370 | 10503 ft | 154 kts | 10° |
| 2026-05-05 21:38 | 43.78294 | -110.70944 | 10500 ft | 157 kts | 11° |
| 2026-05-05 21:38 | 43.79331 | -110.70529 | 10501 ft | 157 kts | 10° |
| 2026-05-05 21:39 | 43.80386 | -110.70098 | 10488 ft | 158 kts | 11° |
| 2026-05-05 21:39 | 43.81449 | -110.69658 | 10486 ft | 158 kts | 10° |
| 2026-05-05 21:39 | 43.82488 | -110.69230 | 10492 ft | 159 kts | 11° |
| 2026-05-05 21:39 | 43.83572 | -110.68786 | 10494 ft | 162 kts | 10° |
| 2026-05-05 21:40 | 43.84631 | -110.68351 | 10484 ft | 160 kts | 10° |
| 2026-05-05 21:40 | 43.85685 | -110.67912 | 10474 ft | 157 kts | 11° |
| 2026-05-05 21:40 | 43.86726 | -110.67484 | 10478 ft | 156 kts | 10° |
| 2026-05-05 21:40 | 43.87763 | -110.67195 | 10471 ft | 149 kts | 353° |
| 2026-05-05 21:41 | 43.88776 | -110.67435 | 10471 ft | 148 kts | 346° |
| 2026-05-05 21:41 | 43.89783 | -110.67722 | 10492 ft | 147 kts | 346° |
| 2026-05-05 21:41 | 43.90788 | -110.68002 | 10489 ft | 148 kts | 346° |
| 2026-05-05 21:41 | 43.91803 | -110.68279 | 10493 ft | 149 kts | 346° |
| 2026-05-05 21:42 | 43.92818 | -110.68569 | 10492 ft | 149 kts | 346° |
| 2026-05-05 21:42 | 43.93832 | -110.68863 | 10492 ft | 149 kts | 346° |
| 2026-05-05 21:42 | 43.94848 | -110.69153 | 10489 ft | 149 kts | 346° |
| 2026-05-05 21:42 | 43.95857 | -110.69442 | 10487 ft | 148 kts | 346° |
| 2026-05-05 21:43 | 43.96862 | -110.69737 | 10491 ft | 148 kts | 345° |
| 2026-05-05 21:43 | 43.97878 | -110.70036 | 10493 ft | 150 kts | 346° |
| 2026-05-05 21:43 | 43.98905 | -110.70337 | 10496 ft | 152 kts | 346° |
| 2026-05-05 21:43 | 43.99937 | -110.70641 | 10495 ft | 152 kts | 346° |
| 2026-05-05 21:44 | 44.00972 | -110.70946 | 10497 ft | 152 kts | 346° |
| 2026-05-05 21:44 | 44.02006 | -110.71251 | 10504 ft | 152 kts | 346° |
| 2026-05-05 21:44 | 44.03042 | -110.71553 | 10504 ft | 153 kts | 346° |
| 2026-05-05 21:44 | 44.04089 | -110.71863 | 10502 ft | 155 kts | 346° |
| 2026-05-05 21:45 | 44.05140 | -110.72181 | 10504 ft | 154 kts | 346° |
| 2026-05-05 21:45 | 44.06179 | -110.72502 | 10504 ft | 152 kts | 346° |
| 2026-05-05 21:45 | 44.07219 | -110.72819 | 10500 ft | 155 kts | 346° |
| 2026-05-05 21:45 | 44.08268 | -110.73146 | 10502 ft | 154 kts | 346° |
| 2026-05-05 21:46 | 44.09315 | -110.73473 | 10503 ft | 155 kts | 346° |
| 2026-05-05 21:46 | 44.10369 | -110.73800 | 10503 ft | 155 kts | 346° |
| 2026-05-05 21:46 | 44.11416 | -110.74125 | 10505 ft | 153 kts | 346° |
| 2026-05-05 21:46 | 44.12459 | -110.74445 | 10508 ft | 154 kts | 346° |
| 2026-05-05 21:47 | 44.13504 | -110.74769 | 10505 ft | 153 kts | 346° |
| 2026-05-05 21:47 | 44.14542 | -110.75086 | 10511 ft | 153 kts | 346° |
| 2026-05-05 21:47 | 44.15587 | -110.75417 | 10508 ft | 155 kts | 345° |
| 2026-05-05 21:47 | 44.16637 | -110.75745 | 10507 ft | 155 kts | 346° |
| 2026-05-05 21:48 | 44.17677 | -110.76069 | 10516 ft | 153 kts | 346° |
| 2026-05-05 21:48 | 44.18719 | -110.76401 | 10512 ft | 154 kts | 346° |
| 2026-05-05 21:48 | 44.19762 | -110.76736 | 10504 ft | 152 kts | 346° |
| 2026-05-05 21:48 | 44.20775 | -110.77057 | 10523 ft | 148 kts | 346° |
| 2026-05-05 21:49 | 44.21781 | -110.77370 | 10521 ft | 148 kts | 346° |
| 2026-05-05 21:49 | 44.22790 | -110.77684 | 10519 ft | 149 kts | 345° |
| 2026-05-05 21:49 | 44.23798 | -110.77996 | 10516 ft | 148 kts | 346° |
| 2026-05-05 21:49 | 44.24790 | -110.78315 | 10521 ft | 148 kts | 346° |
| 2026-05-05 21:50 | 44.25795 | -110.78635 | 10521 ft | 148 kts | 346° |
| 2026-05-05 21:50 | 44.26819 | -110.78949 | 10522 ft | 149 kts | 346° |
| 2026-05-05 21:50 | 44.27815 | -110.79270 | 10527 ft | 150 kts | 346° |
| 2026-05-05 21:50 | 44.28833 | -110.79601 | 10530 ft | 151 kts | 346° |
| 2026-05-05 21:51 | 44.29851 | -110.79934 | 10528 ft | 150 kts | 346° |
| 2026-05-05 21:51 | 44.30873 | -110.80269 | 10533 ft | 151 kts | 346° |
| 2026-05-05 21:51 | 44.31900 | -110.80610 | 10538 ft | 152 kts | 345° |
| 2026-05-05 21:51 | 44.32934 | -110.80944 | 10532 ft | 153 kts | 346° |
| 2026-05-05 21:52 | 44.34995 | -110.81645 | 10528 ft | 153 kts | 344° |
| 2026-05-05 21:52 | 44.36014 | -110.82035 | 10541 ft | 151 kts | 344° |
| 2026-05-05 21:52 | 44.37035 | -110.82378 | 10534 ft | 151 kts | 348° |
| 2026-05-05 21:53 | 44.38067 | -110.82594 | 10543 ft | 150 kts | 354° |
| 2026-05-05 21:53 | 44.39119 | -110.82619 | 10543 ft | 152 kts | 357° |
| 2026-05-05 21:53 | 44.40180 | -110.82636 | 10555 ft | 154 kts | 357° |
| 2026-05-05 21:53 | 44.41250 | -110.82653 | 10545 ft | 153 kts | 357° |
| 2026-05-05 21:54 | 44.42303 | -110.82660 | 10559 ft | 151 kts | 357° |
| 2026-05-05 21:54 | 44.43359 | -110.82675 | 10561 ft | 152 kts | 356° |
| 2026-05-05 21:54 | 44.44417 | -110.82686 | 10571 ft | 153 kts | 357° |
| 2026-05-05 21:54 | 44.45490 | -110.82693 | 10572 ft | 155 kts | 357° |
| 2026-05-05 21:55 | 44.46474 | -110.82708 | 10573 ft | 154 kts | 354° |
| 2026-05-05 21:55 | 44.47430 | -110.83231 | 10573 ft | 152 kts | 322° |
| 2026-05-05 21:55 | 44.48057 | -110.84425 | 10570 ft | 152 kts | 310° |
| 2026-05-05 21:55 | 44.48743 | -110.85524 | 10574 ft | 150 kts | 320° |
| 2026-05-05 21:56 | 44.49494 | -110.86534 | 10592 ft | 147 kts | 320° |
| 2026-05-05 21:56 | 44.50247 | -110.87518 | 10598 ft | 150 kts | 320° |
| 2026-05-05 21:56 | 44.51044 | -110.88549 | 10370 ft | 162 kts | 321° |
| 2026-05-05 21:56 | 44.51886 | -110.89643 | 10142 ft | 168 kts | 321° |
| 2026-05-05 21:57 | 44.52756 | -110.90773 | 9910 ft | 173 kts | 321° |
| 2026-05-05 21:57 | 44.53634 | -110.91916 | 9653 ft | 172 kts | 320° |
| 2026-05-05 21:57 | 44.54507 | -110.93053 | 9388 ft | 170 kts | 320° |
| 2026-05-05 21:57 | 44.55373 | -110.94178 | 9133 ft | 169 kts | 321° |
| 2026-05-05 21:58 | 44.56236 | -110.95302 | 8869 ft | 169 kts | 321° |
| 2026-05-05 21:58 | 44.57095 | -110.96423 | 8714 ft | 165 kts | 321° |
| 2026-05-05 21:58 | 44.57928 | -110.97508 | 8607 ft | 163 kts | 322° |
| 2026-05-05 21:58 | 44.58714 | -110.98536 | 8864 ft | 145 kts | 321° |
| 2026-05-05 21:59 | 44.59446 | -110.99490 | 8909 ft | 143 kts | 322° |
| 2026-05-05 21:59 | 44.60184 | -111.00446 | 8868 ft | 147 kts | 322° |
| 2026-05-05 21:59 | 44.60955 | -111.01451 | 8722 ft | 155 kts | 320° |
| 2026-05-05 21:59 | 44.61735 | -111.02469 | 8612 ft | 156 kts | 322° |
| 2026-05-05 22:00 | 44.62537 | -111.03515 | 8482 ft | 158 kts | 321° |
| 2026-05-05 22:00 | 44.63348 | -111.04580 | 8335 ft | 161 kts | 321° |
| 2026-05-05 22:00 | 44.64155 | -111.05635 | 8191 ft | 153 kts | 322° |
| 2026-05-05 22:00 | 44.64894 | -111.06603 | 8103 ft | 136 kts | 323° |
| 2026-05-05 22:01 | 44.65542 | -111.07454 | 8104 ft | 120 kts | 323° |
| 2026-05-05 22:01 | 44.66125 | -111.08210 | 8104 ft | 106 kts | 323° |
| 2026-05-05 22:01 | 44.66611 | -111.08873 | 8105 ft | 91 kts | 322° |
| 2026-05-05 22:01 | 44.67043 | -111.09475 | 8102 ft | 84 kts | 323° |
| 2026-05-05 22:02 | 44.67441 | -111.10064 | 8108 ft | 85 kts | 322° |
| 2026-05-05 22:02 | 44.67855 | -111.10655 | 8114 ft | 85 kts | 323° |
| 2026-05-05 22:02 | 44.68271 | -111.11254 | 8120 ft | 86 kts | 323° |
| 2026-05-05 22:02 | 44.68692 | -111.11871 | 8093 ft | 92 kts | 319° |
| 2026-05-05 22:03 | 44.69040 | -111.12697 | 7817 ft | 105 kts | 293° |
| 2026-05-05 22:03 | 44.68896 | -111.13757 | 7552 ft | 121 kts | 236° |
| 2026-05-05 22:03 | 44.68202 | -111.14335 | 7461 ft | 119 kts | 203° |
| 2026-05-05 22:03 | 44.67408 | -111.14514 | 7253 ft | 118 kts | 160° |
| 2026-05-05 22:04 | 44.66929 | -111.13753 | 7079 ft | 101 kts | 97° |
| 2026-05-05 22:04 | 44.67139 | -111.12960 | 6899 ft | 85 kts | 27° |
| 2026-05-05 22:04 | 44.67658 | -111.12576 | 6712 ft | 83 kts | 17° |
| 2026-05-05 22:04 | 44.68111 | -111.12266 | 6661 ft | 60 kts | 18° |
| 2026-05-05 22:05 | 44.68399 | -111.12071 | 6657 ft | 25 kts | 28° |
| 2026-05-05 22:05 | 44.68478 | -111.11980 | 6654 ft | 16 kts | 88° |
| 2026-05-05 22:05 | 44.68494 | -111.11839 | 6653 ft | 17 kts | 33° |
| 2026-05-05 22:05 | 44.68589 | -111.11768 | 6655 ft | 14 kts | 28° |
| 2026-05-05 22:06 | 44.68681 | -111.11700 | 6652 ft | 15 kts | 51° |
| 2026-05-05 22:06 | 44.68649 | -111.11590 | 6659 ft | 12 kts | 166° |
| 2026-05-05 22:06 | 44.68668 | -111.11542 | 6652 ft | 14 kts | 24° |
| 2026-05-05 22:06 | 44.68765 | -111.11494 | 6654 ft | 15 kts | 28° |
| 2026-05-05 22:07 | 44.68863 | -111.11444 | 6654 ft | 14 kts | 13° |
| 2026-05-05 22:07 | 44.68886 | -111.11417 | 6652 ft | 2 kts | 187° |
| 2026-05-05 22:07 | 44.68880 | -111.11421 | 6654 ft | 0 kts | 210° |